createdAt,value
2023-03-30T00:02:24.685Z,11.10
2023-03-30T00:04:53.198Z,11.10
2023-03-30T00:07:21.650Z,11.10
2023-03-30T00:09:49.796Z,11.20
2023-03-30T00:12:20.839Z,11.20
2023-03-30T00:14:50.374Z,11.30
2023-03-30T00:17:19.653Z,11.30
2023-03-30T00:19:47.657Z,11.40
2023-03-30T00:22:16.107Z,11.40
2023-03-30T00:24:44.105Z,11.40
2023-03-30T00:27:12.594Z,11.40
2023-03-30T00:29:40.933Z,11.40
2023-03-30T00:32:10.994Z,11.30
2023-03-30T00:34:39.102Z,11.30
2023-03-30T00:37:07.643Z,11.30
2023-03-30T00:39:35.692Z,11.30
2023-03-30T00:42:04.168Z,11.30
2023-03-30T00:44:51.060Z,11.30
2023-03-30T00:47:21.098Z,11.30
2023-03-30T00:49:49.586Z,11.30
2023-03-30T00:52:19.347Z,11.30
2023-03-30T00:54:48.518Z,11.30
2023-03-30T00:57:16.864Z,11.30
2023-03-30T00:59:45.180Z,11.20
2023-03-30T01:02:13.464Z,11.20
2023-03-30T01:04:43.472Z,11.30
2023-03-30T01:07:12.386Z,11.30
2023-03-30T01:09:41.199Z,11.30
2023-03-30T01:12:09.375Z,11.20
2023-03-30T01:14:38.799Z,11.20
2023-03-30T01:17:13.590Z,11.30
2023-03-30T01:19:54.993Z,11.30
2023-03-30T01:22:29.837Z,11.50
2023-03-30T01:25:15.156Z,11.30
2023-03-30T01:28:00.853Z,11.30
2023-03-30T01:30:37.691Z,11.30
2023-03-30T01:33:23.716Z,11.40
2023-03-30T01:36:07.628Z,11.40
2023-03-30T01:38:56.146Z,11.40
2023-03-30T01:41:31.182Z,11.40
2023-03-30T01:44:02.301Z,11.50
2023-03-30T01:46:32.893Z,11.50
2023-03-30T01:49:05.718Z,11.60
2023-03-30T01:51:36.765Z,11.70
2023-03-30T01:54:08.428Z,11.70
2023-03-30T01:56:41.219Z,11.80
2023-03-30T01:59:11.931Z,11.80
2023-03-30T02:01:43.036Z,11.90
2023-03-30T02:04:12.720Z,11.80
2023-03-30T02:06:44.034Z,11.80
2023-03-30T02:09:16.035Z,11.70
2023-03-30T02:11:46.714Z,11.70
2023-03-30T02:14:16.593Z,11.60
2023-03-30T02:17:07.444Z,11.50
2023-03-30T02:19:37.807Z,11.50
2023-03-30T02:22:08.884Z,11.60
2023-03-30T02:24:38.379Z,11.50
2023-03-30T02:27:06.717Z,11.60
2023-03-30T02:29:36.679Z,11.70
2023-03-30T02:32:05.214Z,11.80
2023-03-30T02:34:43.604Z,11.90
2023-03-30T02:37:19.143Z,11.90
2023-03-30T02:39:56.853Z,12.10
2023-03-30T02:42:39.511Z,12.10
2023-03-30T02:45:14.359Z,12.10
2023-03-30T02:47:47.008Z,12.10
2023-03-30T02:50:18.205Z,12.20
2023-03-30T02:55:27.874Z,12.20
2023-03-30T02:58:24.740Z,12.20
2023-03-30T03:01:18.280Z,12.30
2023-03-30T03:04:02.204Z,12.30
2023-03-30T03:06:38.531Z,12.30
2023-03-30T03:09:09.997Z,12.40
2023-03-30T03:11:39.601Z,12.40
2023-03-30T03:14:09.825Z,12.30
2023-03-30T03:16:38.584Z,12.20
2023-03-30T03:19:16.743Z,12.10
2023-03-30T03:21:48.483Z,12.10
2023-03-30T03:24:19.750Z,12.40
2023-03-30T03:27:15.351Z,12.10
2023-03-30T03:30:16.673Z,12.20
2023-03-30T03:32:51.838Z,12.20
2023-03-30T03:35:20.925Z,12.20
2023-03-30T03:37:49.841Z,12.30
2023-03-30T03:40:18.859Z,12.40
2023-03-30T03:42:48.751Z,12.40
2023-03-30T03:45:16.970Z,12.40
2023-03-30T03:48:02.072Z,12.40
2023-03-30T03:50:50.398Z,12.40
2023-03-30T03:53:18.949Z,12.40
2023-03-30T03:55:47.118Z,12.30
2023-03-30T03:58:18.113Z,12.30
2023-03-30T04:00:46.527Z,12.30
2023-03-30T04:03:14.996Z,12.30
2023-03-30T04:05:43.696Z,12.20
2023-03-30T04:08:12.244Z,12.10
2023-03-30T04:10:42.183Z,12.00
2023-03-30T04:13:49.200Z,11.90
2023-03-30T04:16:35.112Z,11.90
2023-03-30T04:19:25.242Z,11.80
2023-03-30T04:22:24.858Z,11.70
2023-03-30T04:25:15.017Z,11.70
2023-03-30T04:28:05.330Z,11.70
2023-03-30T04:31:02.215Z,11.60
2023-03-30T04:33:56.374Z,11.60
2023-03-30T04:36:47.284Z,11.50
2023-03-30T04:39:21.638Z,11.40
2023-03-30T04:41:52.205Z,11.30
2023-03-30T04:44:51.178Z,11.30
2023-03-30T04:47:38.069Z,11.30
2023-03-30T04:50:25.225Z,11.30
2023-03-30T04:53:22.972Z,11.40
2023-03-30T04:56:10.513Z,11.40
2023-03-30T04:59:00.584Z,11.50
2023-03-30T05:01:45.738Z,11.30
2023-03-30T05:04:36.274Z,11.30
2023-03-30T05:07:14.789Z,11.30
2023-03-30T05:10:03.078Z,11.20
2023-03-30T05:13:02.813Z,11.20
2023-03-30T05:16:06.624Z,11.10
2023-03-30T05:18:52.667Z,11.10
2023-03-30T05:21:49.590Z,11.00
2023-03-30T05:24:40.584Z,11.00
2023-03-30T05:27:32.229Z,10.90
2023-03-30T05:30:08.252Z,10.90
2023-03-30T05:32:51.802Z,10.80
2023-03-30T05:35:55.510Z,10.80
2023-03-30T05:38:52.613Z,10.80
2023-03-30T05:41:47.578Z,10.80
2023-03-30T05:44:24.538Z,10.90
2023-03-30T05:47:23.228Z,10.80
2023-03-30T05:50:06.558Z,10.80
2023-03-30T05:52:54.731Z,11.00
2023-03-30T05:55:30.803Z,11.10
2023-03-30T05:58:17.983Z,11.20
2023-03-30T06:01:00.759Z,11.20
2023-03-30T06:03:36.459Z,11.30
2023-03-30T06:06:06.731Z,11.50
2023-03-30T06:08:35.033Z,11.50
2023-03-30T06:11:08.081Z,11.40
2023-03-30T06:13:46.372Z,11.30
2023-03-30T06:16:14.770Z,11.30
2023-03-30T06:18:42.967Z,11.30
2023-03-30T06:21:15.059Z,11.30
2023-03-30T06:24:15.875Z,11.30
2023-03-30T06:26:46.180Z,11.30
2023-03-30T06:29:14.266Z,11.40
2023-03-30T06:31:43.076Z,11.50
2023-03-30T06:34:34.217Z,11.50
2023-03-30T06:37:03.449Z,11.50
2023-03-30T06:39:31.572Z,11.40
2023-03-30T06:42:01.514Z,11.50
2023-03-30T06:44:41.799Z,11.50
2023-03-30T06:47:16.257Z,11.60
2023-03-30T06:49:44.904Z,11.60
2023-03-30T06:52:40.446Z,11.60
2023-03-30T06:55:09.378Z,11.60
2023-03-30T06:57:40.023Z,11.60
2023-03-30T07:00:13.659Z,11.60
2023-03-30T07:02:42.226Z,11.50
2023-03-30T07:05:18.292Z,11.50
2023-03-30T07:07:55.437Z,11.60
2023-03-30T07:10:23.747Z,11.60
2023-03-30T07:12:53.298Z,11.70
2023-03-30T07:15:24.601Z,11.60
2023-03-30T07:17:53.396Z,11.70
2023-03-30T07:20:21.762Z,11.60
2023-03-30T07:23:08.830Z,11.70
2023-03-30T07:25:37.732Z,11.80
2023-03-30T07:28:15.383Z,12.00
2023-03-30T07:30:44.782Z,12.30
2023-03-30T07:33:15.129Z,12.10
2023-03-30T07:35:46.386Z,12.80
2023-03-30T07:38:21.500Z,12.10
2023-03-30T07:40:53.361Z,12.10
2023-03-30T07:43:24.624Z,12.20
2023-03-30T07:45:52.999Z,12.20
2023-03-30T07:48:29.051Z,12.20
2023-03-30T07:51:00.946Z,12.20
2023-03-30T07:53:31.296Z,12.20
2023-03-30T07:56:02.120Z,12.10
2023-03-30T07:58:40.733Z,12.00
2023-03-30T08:01:09.490Z,12.00
2023-03-30T08:03:39.223Z,12.00
2023-03-30T08:06:08.906Z,12.10
2023-03-30T08:08:41.072Z,12.10
2023-03-30T08:11:11.404Z,12.10
2023-03-30T08:13:46.524Z,12.10
2023-03-30T08:16:14.923Z,12.10
2023-03-30T08:18:47.152Z,12.20
2023-03-30T08:21:15.535Z,12.30
2023-03-30T08:23:43.556Z,12.30
2023-03-30T08:26:13.467Z,12.30
2023-03-30T08:28:43.728Z,12.30
2023-03-30T08:31:12.266Z,12.30
2023-03-30T08:33:41.067Z,12.40
2023-03-30T08:36:09.436Z,12.60
2023-03-30T08:38:37.806Z,12.60
2023-03-30T08:41:22.153Z,12.60
2023-03-30T08:43:53.822Z,12.50
2023-03-30T08:46:22.458Z,12.60
2023-03-30T08:48:51.034Z,12.80
2023-03-30T08:51:23.630Z,12.80
2023-03-30T08:53:53.598Z,12.60
2023-03-30T08:56:24.428Z,12.60
2023-03-30T08:58:57.202Z,12.70
2023-03-30T09:01:27.804Z,12.70
2023-03-30T09:04:01.330Z,12.70
2023-03-30T09:06:38.998Z,12.90
2023-03-30T09:09:08.376Z,13.00
2023-03-30T09:11:38.272Z,13.30
2023-03-30T09:14:11.222Z,13.40
2023-03-30T09:16:43.656Z,13.40
2023-03-30T09:19:14.848Z,13.50
2023-03-30T09:21:44.350Z,13.70
2023-03-30T09:24:13.888Z,13.80
2023-03-30T09:26:45.804Z,13.90
2023-03-30T09:29:19.431Z,14.00
2023-03-30T09:31:50.205Z,14.10
2023-03-30T09:34:23.646Z,14.40
2023-03-30T09:36:56.091Z,14.60
2023-03-30T09:39:25.981Z,14.70
2023-03-30T09:42:05.252Z,14.60
2023-03-30T09:44:37.182Z,14.70
2023-03-30T09:47:17.378Z,14.90
2023-03-30T09:49:45.746Z,15.00
2023-03-30T09:52:21.015Z,15.00
2023-03-30T09:54:49.077Z,15.10
2023-03-30T09:57:25.889Z,15.20
2023-03-30T09:59:56.747Z,15.30
2023-03-30T10:02:26.210Z,15.40
2023-03-30T10:05:00.309Z,15.40
2023-03-30T10:07:30.892Z,15.50
2023-03-30T10:09:59.850Z,15.60
2023-03-30T10:12:28.737Z,15.70
2023-03-30T10:14:59.405Z,15.80
2023-03-30T10:17:28.005Z,15.90
2023-03-30T10:20:14.313Z,16.00
2023-03-30T10:22:50.268Z,16.00
2023-03-30T10:25:21.171Z,16.00
2023-03-30T10:27:50.978Z,16.00
2023-03-30T10:30:23.372Z,16.00
2023-03-30T10:32:52.703Z,16.10
2023-03-30T10:35:22.678Z,16.00
2023-03-30T10:37:52.403Z,16.00
2023-03-30T10:40:22.339Z,15.90
2023-03-30T10:42:52.038Z,15.80
2023-03-30T10:45:22.750Z,15.70
2023-03-30T10:48:00.423Z,15.70
2023-03-30T10:50:32.877Z,15.60
2023-03-30T10:53:07.650Z,15.40
2023-03-30T10:55:41.631Z,15.40
2023-03-30T10:58:19.149Z,15.30
2023-03-30T11:00:59.114Z,15.30
2023-03-30T11:03:29.239Z,15.20
2023-03-30T11:05:58.690Z,15.20
2023-03-30T11:08:30.053Z,15.20
2023-03-30T11:11:01.223Z,15.20
2023-03-30T11:13:31.071Z,15.10
2023-03-30T11:16:03.530Z,15.10
2023-03-30T11:18:36.903Z,15.10
2023-03-30T11:21:06.731Z,15.10
2023-03-30T11:23:40.477Z,15.10
2023-03-30T11:26:11.730Z,15.10
2023-03-30T11:29:04.407Z,15.00
2023-03-30T11:31:57.574Z,15.00
2023-03-30T11:34:30.131Z,14.90
2023-03-30T11:37:01.572Z,14.80
2023-03-30T11:42:25.454Z,14.60
2023-03-30T11:44:54.178Z,14.50
2023-03-30T11:47:33.041Z,14.40
2023-03-30T11:50:10.349Z,14.30
2023-03-30T11:52:42.099Z,14.20
2023-03-30T11:55:18.862Z,14.10
2023-03-30T11:57:51.160Z,14.00
2023-03-30T12:00:38.699Z,13.90
2023-03-30T12:03:11.931Z,13.80
2023-03-30T12:05:42.903Z,13.80
2023-03-30T12:08:19.135Z,13.70
2023-03-30T12:10:53.352Z,13.50
2023-03-30T12:13:21.607Z,13.50
2023-03-30T12:15:54.037Z,13.40
2023-03-30T12:18:29.971Z,13.30
2023-03-30T12:21:03.036Z,13.20
2023-03-30T12:23:35.849Z,13.10
2023-03-30T12:26:08.660Z,13.00
2023-03-30T12:28:58.009Z,12.80
2023-03-30T12:31:50.007Z,12.70
2023-03-30T12:34:19.966Z,12.60
2023-03-30T12:36:49.761Z,12.50
2023-03-30T12:39:25.838Z,12.50
2023-03-30T12:41:58.359Z,12.40
2023-03-30T12:44:47.269Z,12.30
2023-03-30T12:47:44.315Z,12.30
2023-03-30T12:50:23.799Z,12.20
2023-03-30T12:53:03.539Z,12.20
2023-03-30T12:55:39.571Z,12.10
2023-03-30T12:58:17.770Z,12.10
2023-03-30T13:00:52.386Z,12.00
2023-03-30T13:03:28.838Z,11.90
2023-03-30T13:05:59.311Z,11.80
2023-03-30T13:08:33.479Z,11.70
2023-03-30T13:11:08.665Z,11.70
2023-03-30T13:13:50.825Z,11.70
2023-03-30T13:16:37.445Z,11.70
2023-03-30T13:19:14.430Z,11.60
2023-03-30T13:21:50.882Z,11.70
2023-03-30T13:24:23.973Z,11.60
2023-03-30T13:26:54.000Z,11.60
2023-03-30T13:29:24.696Z,11.60
2023-03-30T13:32:00.578Z,11.60
2023-03-30T13:34:36.390Z,11.60
2023-03-30T13:37:08.810Z,11.60
2023-03-30T13:39:42.521Z,11.60
2023-03-30T13:42:24.168Z,11.60
2023-03-30T13:44:57.815Z,11.70
2023-03-30T13:47:31.615Z,11.70
2023-03-30T13:50:03.744Z,11.70
2023-03-30T13:52:37.881Z,11.80
2023-03-30T13:55:11.409Z,11.70
2023-03-30T13:57:41.277Z,11.80
2023-03-30T14:00:22.392Z,11.80
2023-03-30T14:02:51.569Z,11.80
2023-03-30T14:05:21.743Z,11.80
2023-03-30T14:07:55.121Z,11.80
2023-03-30T14:10:23.458Z,11.80
2023-03-30T14:12:53.223Z,11.80
2023-03-30T14:15:23.009Z,11.80
2023-03-30T14:17:52.454Z,11.90
2023-03-30T14:20:26.424Z,11.90
2023-03-30T14:22:58.345Z,11.90
2023-03-30T14:25:27.989Z,11.90
2023-03-30T14:27:57.742Z,12.00
2023-03-30T14:30:29.408Z,12.10
2023-03-30T14:33:07.875Z,12.00
2023-03-30T14:35:47.270Z,12.10
2023-03-30T14:38:18.474Z,12.00
2023-03-30T14:40:48.079Z,12.00
2023-03-30T14:43:17.419Z,12.10
2023-03-30T14:45:45.963Z,12.20
2023-03-30T14:48:17.714Z,12.30
2023-03-30T14:50:46.619Z,12.30
2023-03-30T14:53:14.943Z,12.40
2023-03-30T14:55:44.934Z,12.40
2023-03-30T14:58:15.284Z,12.50
2023-03-30T15:00:43.952Z,12.50
2023-03-30T15:03:19.849Z,12.60
2023-03-30T15:06:00.894Z,12.60
2023-03-30T15:08:31.953Z,12.70
2023-03-30T15:11:02.708Z,12.60
2023-03-30T15:13:33.509Z,12.60
2023-03-30T15:16:02.172Z,12.70
2023-03-30T15:18:31.028Z,12.70
2023-03-30T15:21:00.288Z,12.70
2023-03-30T15:23:32.335Z,12.60
2023-03-30T15:26:03.145Z,12.60
2023-03-30T15:28:34.152Z,12.60
2023-03-30T15:31:02.615Z,12.70
2023-03-30T15:33:32.748Z,12.60
2023-03-30T15:36:04.719Z,12.50
2023-03-30T15:38:34.150Z,12.40
2023-03-30T15:41:05.207Z,12.50
2023-03-30T15:43:38.314Z,12.60
2023-03-30T15:46:08.892Z,12.60
2023-03-30T15:48:40.875Z,12.60
2023-03-30T15:51:13.256Z,12.60
2023-03-30T15:53:42.538Z,12.70
2023-03-30T15:56:19.750Z,12.70
2023-03-30T15:58:49.081Z,12.60
2023-03-30T16:01:17.712Z,12.60
2023-03-30T16:03:50.718Z,12.60
2023-03-30T16:06:19.055Z,12.80
2023-03-30T16:08:47.098Z,12.80
2023-03-30T16:11:18.646Z,12.80
2023-03-30T16:13:47.828Z,12.80
2023-03-30T16:16:19.350Z,12.90
2023-03-30T16:18:48.193Z,13.00
2023-03-30T16:21:18.788Z,13.00
2023-03-30T16:23:47.001Z,13.20
2023-03-30T16:26:15.338Z,13.10
2023-03-30T16:28:45.069Z,13.20
2023-03-30T16:31:15.288Z,13.10
2023-03-30T16:33:43.812Z,13.20
2023-03-30T16:36:14.035Z,13.20
2023-03-30T16:38:42.746Z,13.20
2023-03-30T16:41:13.219Z,13.20
2023-03-30T16:43:42.097Z,13.10
2023-03-30T16:46:13.435Z,13.00
2023-03-30T16:48:41.734Z,13.00
2023-03-30T16:51:10.616Z,12.90
2023-03-30T16:53:39.033Z,12.90
2023-03-30T16:56:07.536Z,12.80
2023-03-30T16:58:35.924Z,12.70
2023-03-30T17:01:04.517Z,12.60
2023-03-30T17:03:35.858Z,12.60
2023-03-30T17:06:05.694Z,12.60
2023-03-30T17:08:35.225Z,12.60
2023-03-30T17:11:07.737Z,12.50
2023-03-30T17:13:36.425Z,12.60
2023-03-30T17:16:04.750Z,12.60
2023-03-30T17:18:34.197Z,12.60
2023-03-30T17:21:03.439Z,12.60
2023-03-30T17:23:36.785Z,12.50
2023-03-30T17:26:07.679Z,12.50
2023-03-30T17:28:38.324Z,12.60
2023-03-30T17:31:09.875Z,12.60
2023-03-30T17:33:41.005Z,12.60
2023-03-30T17:36:12.580Z,12.50
2023-03-30T17:38:43.366Z,12.50
2023-03-30T17:41:15.634Z,12.50
2023-03-30T17:43:48.894Z,12.50
2023-03-30T17:46:17.890Z,12.50
2023-03-30T17:48:47.729Z,12.50
2023-03-30T17:51:15.832Z,12.50
2023-03-30T17:53:44.227Z,12.30
2023-03-30T17:56:13.366Z,12.40
2023-03-30T17:58:41.501Z,12.30
2023-03-30T18:01:12.826Z,12.30
2023-03-30T18:03:42.061Z,12.30
2023-03-30T18:06:13.735Z,12.30
2023-03-30T18:08:42.950Z,12.40
2023-03-30T18:11:11.523Z,12.30
2023-03-30T18:13:39.577Z,12.20
2023-03-30T18:16:12.772Z,12.30
2023-03-30T18:18:40.901Z,12.30
2023-03-30T18:21:11.392Z,12.30
2023-03-30T18:23:40.820Z,12.20
2023-03-30T18:26:13.481Z,12.30
2023-03-30T18:28:43.788Z,12.20
2023-03-30T18:31:18.877Z,12.20
2023-03-30T18:33:46.970Z,12.10
2023-03-30T18:36:15.933Z,12.10
2023-03-30T18:38:46.893Z,12.10
2023-03-30T18:41:14.991Z,12.10
2023-03-30T18:43:43.282Z,12.10
2023-03-30T18:46:12.929Z,12.00
2023-03-30T18:48:41.868Z,12.00
2023-03-30T18:51:10.706Z,12.00
2023-03-30T18:53:40.707Z,12.00
2023-03-30T18:56:12.462Z,12.00
2023-03-30T18:58:42.930Z,12.50
2023-03-30T19:01:13.131Z,11.90
2023-03-30T19:03:42.342Z,11.90
2023-03-30T19:06:14.025Z,11.80
2023-03-30T19:08:43.535Z,11.80
2023-03-30T19:11:17.631Z,11.80
2023-03-30T19:13:48.089Z,11.80
2023-03-30T19:16:18.557Z,11.80
2023-03-30T19:18:48.405Z,11.70
2023-03-30T19:21:17.349Z,11.70
2023-03-30T19:23:46.212Z,11.70
2023-03-30T19:26:14.234Z,11.60
2023-03-30T19:28:44.288Z,11.70
2023-03-30T19:31:15.736Z,11.60
2023-03-30T19:33:44.921Z,11.60
2023-03-30T19:36:13.057Z,11.50
2023-03-30T19:38:43.739Z,11.50
2023-03-30T19:41:12.145Z,11.50
2023-03-30T19:43:40.170Z,11.50
2023-03-30T19:46:28.942Z,11.50
2023-03-30T19:48:57.830Z,11.50
2023-03-30T19:51:26.316Z,11.50
2023-03-30T19:54:01.292Z,11.60
2023-03-30T19:56:30.302Z,11.50
2023-03-30T19:59:02.893Z,11.50
2023-03-30T20:01:34.074Z,11.30
2023-03-30T20:04:02.674Z,11.30
2023-03-30T20:06:30.922Z,11.20
2023-03-30T20:08:59.919Z,11.30
2023-03-30T20:11:29.014Z,11.30
2023-03-30T20:13:57.785Z,11.20
2023-03-30T20:16:26.150Z,11.20
2023-03-30T20:18:57.517Z,11.10
2023-03-30T20:21:26.230Z,11.10
2023-03-30T20:23:56.151Z,11.10
2023-03-30T20:26:28.115Z,11.10
2023-03-30T20:28:59.163Z,11.10
2023-03-30T20:31:27.562Z,11.10
2023-03-30T20:33:58.684Z,11.00
2023-03-30T20:36:27.590Z,10.90
2023-03-30T20:38:59.522Z,11.00
2023-03-30T20:41:37.909Z,11.00
2023-03-30T20:44:12.132Z,10.90
2023-03-30T20:46:40.254Z,11.00
2023-03-30T20:49:10.466Z,11.00
2023-03-30T20:51:40.048Z,11.00
2023-03-30T20:54:08.516Z,11.00
2023-03-30T20:56:37.527Z,11.00
2023-03-30T20:59:05.822Z,11.00
2023-03-30T21:01:35.449Z,11.00
2023-03-30T21:04:03.606Z,10.90
2023-03-30T21:06:33.718Z,11.00
2023-03-30T21:09:15.901Z,11.00
2023-03-30T21:11:45.356Z,11.00
2023-03-30T21:14:14.537Z,11.10
2023-03-30T21:16:43.215Z,11.20
2023-03-30T21:19:11.979Z,11.20
2023-03-30T21:21:42.480Z,11.20
2023-03-30T21:24:11.954Z,11.20
2023-03-30T21:26:40.903Z,11.20
2023-03-30T21:29:10.092Z,11.20
2023-03-30T21:31:38.236Z,11.20
2023-03-30T21:34:07.096Z,11.10
2023-03-30T21:36:35.204Z,11.10
2023-03-30T21:39:04.944Z,11.10
2023-03-30T21:41:32.958Z,11.10
2023-03-30T21:44:01.589Z,11.00
2023-03-30T21:46:31.043Z,10.90
2023-03-30T21:48:59.558Z,10.90
2023-03-30T21:51:28.609Z,10.90
2023-03-30T21:53:58.168Z,10.90
2023-03-30T21:56:31.470Z,10.90
2023-03-30T21:59:00.685Z,10.90
2023-03-30T22:01:29.161Z,10.90
2023-03-30T22:03:57.861Z,10.90
2023-03-30T22:06:26.026Z,10.90
2023-03-30T22:08:55.017Z,10.80
2023-03-30T22:11:24.430Z,10.70
2023-03-30T22:13:55.197Z,10.50
2023-03-30T22:16:24.485Z,10.40
2023-03-30T22:18:53.021Z,10.40
2023-03-30T22:21:24.205Z,10.30
2023-03-30T22:23:54.546Z,10.20
2023-03-30T22:26:23.092Z,10.10
2023-03-30T22:28:51.138Z,10.00
2023-03-30T22:31:21.637Z,9.90
2023-03-30T22:33:49.703Z,9.80
2023-03-30T22:36:20.442Z,9.80
2023-03-30T22:38:49.302Z,9.70
2023-03-30T22:41:18.920Z,9.70
2023-03-30T22:43:47.050Z,9.70
2023-03-30T22:46:15.406Z,9.70
2023-03-30T22:48:45.464Z,9.80
2023-03-30T22:51:14.514Z,9.80
2023-03-30T22:53:43.196Z,9.70
2023-03-30T22:56:11.711Z,9.70
2023-03-30T22:58:39.994Z,9.70
2023-03-30T23:01:10.140Z,9.60
2023-03-30T23:03:39.050Z,9.60
2023-03-30T23:06:09.202Z,9.60
2023-03-30T23:08:39.308Z,9.70
2023-03-30T23:11:08.293Z,9.70
2023-03-30T23:13:38.090Z,9.60
2023-03-30T23:16:08.153Z,9.60
2023-03-30T23:18:40.543Z,9.50
2023-03-30T23:21:11.134Z,9.50
2023-03-30T23:23:39.925Z,9.50
2023-03-30T23:26:09.880Z,9.40
2023-03-30T23:28:39.706Z,9.40
2023-03-30T23:31:08.255Z,9.40
2023-03-30T23:33:36.612Z,9.30
2023-03-30T23:36:06.416Z,9.30
2023-03-30T23:38:36.130Z,9.20
2023-03-30T23:41:04.615Z,9.10
2023-03-30T23:43:32.889Z,9.10
2023-03-30T23:46:01.480Z,9.10
2023-03-30T23:48:29.967Z,9.00
2023-03-30T23:50:58.654Z,9.00
2023-03-30T23:53:27.220Z,9.10
2023-03-30T23:55:58.209Z,9.00
2023-03-30T23:58:26.462Z,9.00
